sensor_id;sensor_type;location;lat;lon;timestamp;P1;durP1;ratioP1;P2;durP2;ratioP2
1531;SDS011;759;53.170;8.210;2022-09-09T00:00:19;11.80;;;10.50;;
1531;SDS011;759;53.170;8.210;2022-09-09T00:08:21;13.30;;;11.60;;
1531;SDS011;759;53.170;8.210;2022-09-09T00:10:54;16.00;;;11.03;;
1531;SDS011;759;53.170;8.210;2022-09-09T00:13:40;15.00;;;10.80;;
1531;SDS011;759;53.170;8.210;2022-09-09T00:16:24;15.27;;;11.70;;
1531;SDS011;759;53.170;8.210;2022-09-09T00:26:53;14.77;;;11.10;;
1531;SDS011;759;53.170;8.210;2022-09-09T00:32:14;14.00;;;12.50;;
1531;SDS011;759;53.170;8.210;2022-09-09T00:34:48;13.87;;;11.77;;
1531;SDS011;759;53.170;8.210;2022-09-09T00:37:18;17.20;;;13.70;;
1531;SDS011;759;53.170;8.210;2022-09-09T00:39:46;18.80;;;13.53;;
1531;SDS011;759;53.170;8.210;2022-09-09T00:44:56;15.90;;;14.05;;
1531;SDS011;759;53.170;8.210;2022-09-09T00:52:56;17.53;;;14.73;;
1531;SDS011;759;53.170;8.210;2022-09-09T00:55:53;19.10;;;14.80;;
1531;SDS011;759;53.170;8.210;2022-09-09T00:58:23;18.70;;;14.50;;
1531;SDS011;759;53.170;8.210;2022-09-09T01:00:56;19.97;;;15.40;;
1531;SDS011;759;53.170;8.210;2022-09-09T01:11:22;20.47;;;14.63;;
1531;SDS011;759;53.170;8.210;2022-09-09T01:13:56;20.20;;;16.10;;
1531;SDS011;759;53.170;8.210;2022-09-09T01:16:27;19.17;;;15.03;;
1531;SDS011;759;53.170;8.210;2022-09-09T01:18:55;19.30;;;14.20;;
1531;SDS011;759;53.170;8.210;2022-09-09T01:21:25;15.65;;;12.90;;
1531;SDS011;759;53.170;8.210;2022-09-09T01:26:51;16.03;;;12.50;;
1531;SDS011;759;53.170;8.210;2022-09-09T01:29:20;24.77;;;15.47;;
1531;SDS011;759;53.170;8.210;2022-09-09T01:31:54;17.00;;;14.95;;
1531;SDS011;759;53.170;8.210;2022-09-09T01:34:23;14.75;;;13.25;;
1531;SDS011;759;53.170;8.210;2022-09-09T01:39:18;20.95;;;15.10;;
1531;SDS011;759;53.170;8.210;2022-09-09T01:41:45;22.07;;;14.63;;
1531;SDS011;759;53.170;8.210;2022-09-09T01:44:10;17.20;;;15.40;;
1531;SDS011;759;53.170;8.210;2022-09-09T01:46:36;20.07;;;13.90;;
1531;SDS011;759;53.170;8.210;2022-09-09T01:49:02;18.50;;;13.63;;
1531;SDS011;759;53.170;8.210;2022-09-09T01:51:30;18.45;;;14.40;;
1531;SDS011;759;53.170;8.210;2022-09-09T01:53:55;16.25;;;13.50;;
1531;SDS011;759;53.170;8.210;2022-09-09T01:56:24;19.23;;;13.97;;
1531;SDS011;759;53.170;8.210;2022-09-09T02:04:29;15.53;;;13.53;;
1531;SDS011;759;53.170;8.210;2022-09-09T02:07:56;19.57;;;14.20;;
1531;SDS011;759;53.170;8.210;2022-09-09T02:10:19;18.40;;;14.07;;
1531;SDS011;759;53.170;8.210;2022-09-09T02:12:54;14.40;;;12.80;;
1531;SDS011;759;53.170;8.210;2022-09-09T02:17:55;15.85;;;13.60;;
1531;SDS011;759;53.170;8.210;2022-09-09T02:20:23;18.85;;;15.80;;
1531;SDS011;759;53.170;8.210;2022-09-09T02:22:52;17.80;;;14.73;;
1531;SDS011;759;53.170;8.210;2022-09-09T02:25:19;21.03;;;15.03;;
1531;SDS011;759;53.170;8.210;2022-09-09T02:27:49;14.80;;;13.30;;
1531;SDS011;759;53.170;8.210;2022-09-09T02:30:16;15.43;;;13.70;;
1531;SDS011;759;53.170;8.210;2022-09-09T02:32:43;18.90;;;13.17;;
1531;SDS011;759;53.170;8.210;2022-09-09T02:35:12;15.15;;;13.55;;
1531;SDS011;759;53.170;8.210;2022-09-09T02:37:41;17.53;;;14.13;;
1531;SDS011;759;53.170;8.210;2022-09-09T02:40:08;14.63;;;13.10;;
1531;SDS011;759;53.170;8.210;2022-09-09T02:42:40;18.63;;;14.20;;
1531;SDS011;759;53.170;8.210;2022-09-09T02:45:07;15.33;;;12.83;;
1531;SDS011;759;53.170;8.210;2022-09-09T02:47:36;16.70;;;13.70;;
1531;SDS011;759;53.170;8.210;2022-09-09T02:50:33;18.97;;;13.60;;
1531;SDS011;759;53.170;8.210;2022-09-09T02:55:48;14.77;;;12.63;;
1531;SDS011;759;53.170;8.210;2022-09-09T02:58:19;20.05;;;13.90;;
1531;SDS011;759;53.170;8.210;2022-09-09T03:00:46;15.80;;;14.10;;
1531;SDS011;759;53.170;8.210;2022-09-09T03:03:13;16.73;;;13.20;;
1531;SDS011;759;53.170;8.210;2022-09-09T03:05:41;16.13;;;12.77;;
1531;SDS011;759;53.170;8.210;2022-09-09T03:08:06;15.73;;;14.00;;
1531;SDS011;759;53.170;8.210;2022-09-09T03:10:32;17.83;;;14.40;;
1531;SDS011;759;53.170;8.210;2022-09-09T03:12:58;14.10;;;12.47;;
1531;SDS011;759;53.170;8.210;2022-09-09T03:15:23;17.77;;;13.03;;
1531;SDS011;759;53.170;8.210;2022-09-09T03:17:52;15.53;;;13.60;;
1531;SDS011;759;53.170;8.210;2022-09-09T03:20:17;18.70;;;12.90;;
1531;SDS011;759;53.170;8.210;2022-09-09T03:22:42;16.20;;;13.00;;
1531;SDS011;759;53.170;8.210;2022-09-09T03:25:10;15.43;;;13.00;;
1531;SDS011;759;53.170;8.210;2022-09-09T03:27:35;15.73;;;13.17;;
1531;SDS011;759;53.170;8.210;2022-09-09T03:30:00;21.00;;;12.27;;
1531;SDS011;759;53.170;8.210;2022-09-09T03:32:28;21.30;;;13.53;;
1531;SDS011;759;53.170;8.210;2022-09-09T03:34:54;24.13;;;13.67;;
1531;SDS011;759;53.170;8.210;2022-09-09T03:37:19;15.47;;;13.40;;
1531;SDS011;759;53.170;8.210;2022-09-09T03:39:45;17.80;;;13.40;;
1531;SDS011;759;53.170;8.210;2022-09-09T03:42:14;17.27;;;12.37;;
1531;SDS011;759;53.170;8.210;2022-09-09T03:44:43;14.40;;;12.40;;
1531;SDS011;759;53.170;8.210;2022-09-09T03:47:10;16.53;;;12.50;;
1531;SDS011;759;53.170;8.210;2022-09-09T03:49:35;15.27;;;13.60;;
1531;SDS011;759;53.170;8.210;2022-09-09T03:52:00;14.97;;;11.80;;
1531;SDS011;759;53.170;8.210;2022-09-09T03:54:26;20.13;;;12.40;;
1531;SDS011;759;53.170;8.210;2022-09-09T03:56:52;14.47;;;12.97;;
1531;SDS011;759;53.170;8.210;2022-09-09T03:59:17;14.10;;;12.67;;
1531;SDS011;759;53.170;8.210;2022-09-09T04:01:43;14.60;;;12.03;;
1531;SDS011;759;53.170;8.210;2022-09-09T04:04:10;19.60;;;12.60;;
1531;SDS011;759;53.170;8.210;2022-09-09T04:06:37;15.60;;;12.90;;
1531;SDS011;759;53.170;8.210;2022-09-09T04:09:02;19.43;;;13.90;;
1531;SDS011;759;53.170;8.210;2022-09-09T04:11:28;13.83;;;12.33;;
1531;SDS011;759;53.170;8.210;2022-09-09T04:13:54;15.95;;;12.80;;
1531;SDS011;759;53.170;8.210;2022-09-09T04:16:19;13.90;;;12.50;;
1531;SDS011;759;53.170;8.210;2022-09-09T04:18:45;14.17;;;12.53;;
1531;SDS011;759;53.170;8.210;2022-09-09T04:21:11;13.60;;;12.25;;
1531;SDS011;759;53.170;8.210;2022-09-09T04:23:37;14.53;;;12.00;;
1531;SDS011;759;53.170;8.210;2022-09-09T04:26:03;14.10;;;11.83;;
1531;SDS011;759;53.170;8.210;2022-09-09T04:28:30;12.33;;;10.50;;
1531;SDS011;759;53.170;8.210;2022-09-09T04:31:05;13.70;;;11.63;;
1531;SDS011;759;53.170;8.210;2022-09-09T04:33:32;14.00;;;11.73;;
1531;SDS011;759;53.170;8.210;2022-09-09T04:35:58;14.60;;;10.10;;
1531;SDS011;759;53.170;8.210;2022-09-09T04:38:23;16.27;;;12.27;;
1531;SDS011;759;53.170;8.210;2022-09-09T04:40:49;16.67;;;11.53;;
1531;SDS011;759;53.170;8.210;2022-09-09T04:43:17;15.10;;;10.87;;
1531;SDS011;759;53.170;8.210;2022-09-09T04:45:44;11.27;;;10.17;;
1531;SDS011;759;53.170;8.210;2022-09-09T04:48:12;15.63;;;11.87;;
1531;SDS011;759;53.170;8.210;2022-09-09T04:50:37;17.07;;;11.97;;
1531;SDS011;759;53.170;8.210;2022-09-09T04:53:03;13.75;;;9.00;;
1531;SDS011;759;53.170;8.210;2022-09-09T04:55:30;13.90;;;11.20;;
1531;SDS011;759;53.170;8.210;2022-09-09T04:57:56;12.40;;;11.00;;
1531;SDS011;759;53.170;8.210;2022-09-09T05:00:22;13.93;;;9.97;;
1531;SDS011;759;53.170;8.210;2022-09-09T05:02:48;14.30;;;10.40;;
1531;SDS011;759;53.170;8.210;2022-09-09T05:05:13;13.03;;;10.97;;
1531;SDS011;759;53.170;8.210;2022-09-09T05:07:39;11.00;;;9.90;;
1531;SDS011;759;53.170;8.210;2022-09-09T05:10:04;11.90;;;10.03;;
1531;SDS011;759;53.170;8.210;2022-09-09T05:12:30;11.80;;;9.20;;
1531;SDS011;759;53.170;8.210;2022-09-09T05:14:56;11.53;;;10.33;;
1531;SDS011;759;53.170;8.210;2022-09-09T05:17:22;13.20;;;10.67;;
1531;SDS011;759;53.170;8.210;2022-09-09T05:19:47;22.37;;;11.60;;
1531;SDS011;759;53.170;8.210;2022-09-09T05:22:17;11.50;;;10.40;;
1531;SDS011;759;53.170;8.210;2022-09-09T05:24:45;16.10;;;10.20;;
1531;SDS011;759;53.170;8.210;2022-09-09T05:27:11;13.53;;;10.17;;
1531;SDS011;759;53.170;8.210;2022-09-09T05:29:37;11.60;;;10.40;;
1531;SDS011;759;53.170;8.210;2022-09-09T05:32:03;17.03;;;11.93;;
1531;SDS011;759;53.170;8.210;2022-09-09T05:34:28;15.27;;;10.70;;
1531;SDS011;759;53.170;8.210;2022-09-09T05:36:54;11.75;;;9.40;;
1531;SDS011;759;53.170;8.210;2022-09-09T05:39:19;12.00;;;10.27;;
1531;SDS011;759;53.170;8.210;2022-09-09T05:41:44;11.60;;;9.57;;
1531;SDS011;759;53.170;8.210;2022-09-09T05:44:10;10.33;;;9.43;;
1531;SDS011;759;53.170;8.210;2022-09-09T05:46:35;11.60;;;10.13;;
1531;SDS011;759;53.170;8.210;2022-09-09T05:49:01;11.20;;;10.00;;
1531;SDS011;759;53.170;8.210;2022-09-09T05:51:30;14.40;;;9.55;;
1531;SDS011;759;53.170;8.210;2022-09-09T05:53:56;15.27;;;9.20;;
1531;SDS011;759;53.170;8.210;2022-09-09T05:56:29;14.83;;;9.70;;
1531;SDS011;759;53.170;8.210;2022-09-09T05:58:55;10.07;;;8.93;;
1531;SDS011;759;53.170;8.210;2022-09-09T06:01:25;11.30;;;9.00;;
1531;SDS011;759;53.170;8.210;2022-09-09T06:03:55;8.63;;;7.60;;
1531;SDS011;759;53.170;8.210;2022-09-09T06:06:22;8.40;;;7.53;;
1531;SDS011;759;53.170;8.210;2022-09-09T06:08:51;8.90;;;7.70;;
1531;SDS011;759;53.170;8.210;2022-09-09T06:11:22;11.90;;;8.00;;
1531;SDS011;759;53.170;8.210;2022-09-09T06:13:49;6.63;;;5.97;;
1531;SDS011;759;53.170;8.210;2022-09-09T06:16:18;7.40;;;6.70;;
1531;SDS011;759;53.170;8.210;2022-09-09T06:18:45;6.40;;;5.77;;
1531;SDS011;759;53.170;8.210;2022-09-09T06:21:16;8.50;;;7.67;;
1531;SDS011;759;53.170;8.210;2022-09-09T06:23:42;7.23;;;6.53;;
1531;SDS011;759;53.170;8.210;2022-09-09T06:28:49;9.93;;;6.70;;
1531;SDS011;759;53.170;8.210;2022-09-09T06:31:18;6.33;;;5.70;;
1531;SDS011;759;53.170;8.210;2022-09-09T06:33:48;7.20;;;5.90;;
1531;SDS011;759;53.170;8.210;2022-09-09T06:36:15;7.10;;;6.10;;
1531;SDS011;759;53.170;8.210;2022-09-09T06:38:43;7.60;;;5.83;;
1531;SDS011;759;53.170;8.210;2022-09-09T06:41:09;7.73;;;6.93;;
1531;SDS011;759;53.170;8.210;2022-09-09T06:43:36;7.43;;;6.43;;
1531;SDS011;759;53.170;8.210;2022-09-09T06:46:05;9.15;;;6.70;;
1531;SDS011;759;53.170;8.210;2022-09-09T06:48:33;6.55;;;5.95;;
1531;SDS011;759;53.170;8.210;2022-09-09T06:53:32;6.93;;;6.30;;
1531;SDS011;759;53.170;8.210;2022-09-09T06:56:03;6.60;;;5.90;;
1531;SDS011;759;53.170;8.210;2022-09-09T06:58:43;10.20;;;7.80;;
1531;SDS011;759;53.170;8.210;2022-09-09T07:01:10;9.97;;;7.10;;
1531;SDS011;759;53.170;8.210;2022-09-09T07:03:38;8.45;;;7.15;;
1531;SDS011;759;53.170;8.210;2022-09-09T07:06:04;8.00;;;7.30;;
1531;SDS011;759;53.170;8.210;2022-09-09T07:08:31;14.40;;;8.90;;
1531;SDS011;759;53.170;8.210;2022-09-09T07:11:02;9.15;;;7.80;;
1531;SDS011;759;53.170;8.210;2022-09-09T07:13:31;10.33;;;7.90;;
1531;SDS011;759;53.170;8.210;2022-09-09T07:16:30;9.40;;;8.40;;
1531;SDS011;759;53.170;8.210;2022-09-09T07:18:49;9.20;;;8.00;;
1531;SDS011;759;53.170;8.210;2022-09-09T07:21:16;10.43;;;7.67;;
1531;SDS011;759;53.170;8.210;2022-09-09T07:23:42;8.67;;;7.03;;
1531;SDS011;759;53.170;8.210;2022-09-09T07:26:12;7.57;;;6.80;;
1531;SDS011;759;53.170;8.210;2022-09-09T07:28:44;8.33;;;7.57;;
1531;SDS011;759;53.170;8.210;2022-09-09T07:31:14;8.77;;;6.13;;
1531;SDS011;759;53.170;8.210;2022-09-09T07:33:41;11.60;;;6.70;;
1531;SDS011;759;53.170;8.210;2022-09-09T07:36:12;6.23;;;5.37;;
1531;SDS011;759;53.170;8.210;2022-09-09T07:38:40;7.03;;;6.43;;
1531;SDS011;759;53.170;8.210;2022-09-09T07:41:09;7.20;;;6.50;;
1531;SDS011;759;53.170;8.210;2022-09-09T07:43:39;16.80;;;7.10;;
1531;SDS011;759;53.170;8.210;2022-09-09T07:46:06;7.85;;;7.15;;
1531;SDS011;759;53.170;8.210;2022-09-09T07:48:34;10.27;;;7.30;;
1531;SDS011;759;53.170;8.210;2022-09-09T07:51:10;8.70;;;7.60;;
1531;SDS011;759;53.170;8.210;2022-09-09T07:53:37;12.60;;;8.43;;
1531;SDS011;759;53.170;8.210;2022-09-09T07:56:07;6.97;;;6.33;;
1531;SDS011;759;53.170;8.210;2022-09-09T07:58:35;7.77;;;7.00;;
1531;SDS011;759;53.170;8.210;2022-09-09T08:01:13;10.10;;;7.40;;
1531;SDS011;759;53.170;8.210;2022-09-09T08:03:41;13.10;;;9.00;;
1531;SDS011;759;53.170;8.210;2022-09-09T08:06:08;9.43;;;8.17;;
1531;SDS011;759;53.170;8.210;2022-09-09T08:08:34;8.55;;;7.80;;
1531;SDS011;759;53.170;8.210;2022-09-09T08:11:04;7.93;;;7.13;;
1531;SDS011;759;53.170;8.210;2022-09-09T08:13:32;8.40;;;7.60;;
1531;SDS011;759;53.170;8.210;2022-09-09T08:16:12;9.30;;;7.60;;
1531;SDS011;759;53.170;8.210;2022-09-09T08:18:43;7.60;;;6.83;;
1531;SDS011;759;53.170;8.210;2022-09-09T08:23:43;7.55;;;6.70;;
1531;SDS011;759;53.170;8.210;2022-09-09T08:26:11;6.60;;;5.80;;
1531;SDS011;759;53.170;8.210;2022-09-09T08:28:39;7.37;;;6.10;;
1531;SDS011;759;53.170;8.210;2022-09-09T08:31:09;9.90;;;6.80;;
1531;SDS011;759;53.170;8.210;2022-09-09T08:33:39;7.50;;;6.80;;
1531;SDS011;759;53.170;8.210;2022-09-09T08:36:06;9.83;;;6.93;;
1531;SDS011;759;53.170;8.210;2022-09-09T08:38:34;9.50;;;6.40;;
1531;SDS011;759;53.170;8.210;2022-09-09T08:43:41;6.00;;;5.30;;
1531;SDS011;759;53.170;8.210;2022-09-09T08:46:46;7.40;;;5.50;;
1531;SDS011;759;53.170;8.210;2022-09-09T08:52:30;6.53;;;5.33;;
1531;SDS011;759;53.170;8.210;2022-09-09T08:55:05;6.47;;;5.40;;
1531;SDS011;759;53.170;8.210;2022-09-09T08:57:52;6.80;;;5.83;;
1531;SDS011;759;53.170;8.210;2022-09-09T09:00:20;6.07;;;5.37;;
1531;SDS011;759;53.170;8.210;2022-09-09T09:05:26;7.37;;;5.40;;
1531;SDS011;759;53.170;8.210;2022-09-09T09:11:03;7.35;;;4.20;;
1531;SDS011;759;53.170;8.210;2022-09-09T09:13:44;4.90;;;4.20;;
1531;SDS011;759;53.170;8.210;2022-09-09T09:16:23;4.53;;;2.80;;
1531;SDS011;759;53.170;8.210;2022-09-09T09:18:57;4.47;;;3.10;;
1531;SDS011;759;53.170;8.210;2022-09-09T09:23:57;3.60;;;3.30;;
1531;SDS011;759;53.170;8.210;2022-09-09T09:26:25;6.30;;;3.70;;
1531;SDS011;759;53.170;8.210;2022-09-09T09:28:56;4.57;;;3.50;;
1531;SDS011;759;53.170;8.210;2022-09-09T09:31:24;4.35;;;3.40;;
1531;SDS011;759;53.170;8.210;2022-09-09T09:33:55;5.30;;;4.90;;
1531;SDS011;759;53.170;8.210;2022-09-09T09:36:32;5.03;;;4.60;;
1531;SDS011;759;53.170;8.210;2022-09-09T09:39:00;4.63;;;4.23;;
1531;SDS011;759;53.170;8.210;2022-09-09T09:41:49;4.27;;;3.97;;
1531;SDS011;759;53.170;8.210;2022-09-09T09:49:32;5.47;;;4.97;;
1531;SDS011;759;53.170;8.210;2022-09-09T09:52:01;4.83;;;4.43;;
1531;SDS011;759;53.170;8.210;2022-09-09T09:54:28;5.47;;;4.40;;
1531;SDS011;759;53.170;8.210;2022-09-09T09:56:56;4.50;;;4.10;;
1531;SDS011;759;53.170;8.210;2022-09-09T09:59:33;13.47;;;5.00;;
1531;SDS011;759;53.170;8.210;2022-09-09T10:02:36;4.60;;;4.25;;
1531;SDS011;759;53.170;8.210;2022-09-09T10:07:27;5.23;;;4.77;;
1531;SDS011;759;53.170;8.210;2022-09-09T10:09:54;7.00;;;5.30;;
1531;SDS011;759;53.170;8.210;2022-09-09T10:15:07;5.20;;;4.70;;
1531;SDS011;759;53.170;8.210;2022-09-09T10:28:37;8.83;;;4.00;;
1531;SDS011;759;53.170;8.210;2022-09-09T10:31:46;4.50;;;4.20;;
1531;SDS011;759;53.170;8.210;2022-09-09T10:37:00;4.03;;;2.90;;
1531;SDS011;759;53.170;8.210;2022-09-09T10:39:36;6.43;;;3.37;;
1531;SDS011;759;53.170;8.210;2022-09-09T10:42:14;4.67;;;3.50;;
1531;SDS011;759;53.170;8.210;2022-09-09T10:50:28;3.50;;;3.30;;
1531;SDS011;759;53.170;8.210;2022-09-09T10:55:51;5.77;;;3.87;;
1531;SDS011;759;53.170;8.210;2022-09-09T10:58:23;4.57;;;4.27;;
1531;SDS011;759;53.170;8.210;2022-09-09T11:00:54;4.80;;;3.73;;
1531;SDS011;759;53.170;8.210;2022-09-09T11:03:27;3.70;;;3.40;;
1531;SDS011;759;53.170;8.210;2022-09-09T11:08:53;3.10;;;2.90;;
1531;SDS011;759;53.170;8.210;2022-09-09T11:11:36;4.47;;;3.93;;
1531;SDS011;759;53.170;8.210;2022-09-09T11:16:53;4.23;;;3.83;;
1531;SDS011;759;53.170;8.210;2022-09-09T11:19:36;5.43;;;3.60;;
1531;SDS011;759;53.170;8.210;2022-09-09T11:22:04;6.23;;;4.40;;
1531;SDS011;759;53.170;8.210;2022-09-09T11:30:19;5.40;;;4.30;;
1531;SDS011;759;53.170;8.210;2022-09-09T11:35:37;6.47;;;5.07;;
1531;SDS011;759;53.170;8.210;2022-09-09T11:38:10;5.03;;;4.40;;
1531;SDS011;759;53.170;8.210;2022-09-09T11:40:42;4.67;;;4.23;;
1531;SDS011;759;53.170;8.210;2022-09-09T11:43:10;4.80;;;4.30;;
1531;SDS011;759;53.170;8.210;2022-09-09T11:45:39;8.87;;;4.53;;
1531;SDS011;759;53.170;8.210;2022-09-09T11:48:23;4.60;;;4.20;;
1531;SDS011;759;53.170;8.210;2022-09-09T11:50:57;5.27;;;4.67;;
1531;SDS011;759;53.170;8.210;2022-09-09T11:53:26;7.87;;;4.60;;
1531;SDS011;759;53.170;8.210;2022-09-09T11:58:29;4.03;;;3.83;;
1531;SDS011;759;53.170;8.210;2022-09-09T12:04:16;6.27;;;4.97;;
1531;SDS011;759;53.170;8.210;2022-09-09T12:09:21;7.50;;;6.90;;
1531;SDS011;759;53.170;8.210;2022-09-09T12:12:07;7.60;;;6.87;;
1531;SDS011;759;53.170;8.210;2022-09-09T12:22:51;10.53;;;6.30;;
1531;SDS011;759;53.170;8.210;2022-09-09T12:30:32;6.37;;;5.80;;
1531;SDS011;759;53.170;8.210;2022-09-09T12:33:12;6.77;;;5.97;;
1531;SDS011;759;53.170;8.210;2022-09-09T12:35:41;6.10;;;5.50;;
1531;SDS011;759;53.170;8.210;2022-09-09T12:38:13;6.90;;;6.30;;
1531;SDS011;759;53.170;8.210;2022-09-09T12:40:53;7.03;;;6.40;;
1531;SDS011;759;53.170;8.210;2022-09-09T12:43:21;7.23;;;6.50;;
1531;SDS011;759;53.170;8.210;2022-09-09T12:45:49;7.00;;;6.33;;
1531;SDS011;759;53.170;8.210;2022-09-09T12:48:27;7.87;;;6.30;;
1531;SDS011;759;53.170;8.210;2022-09-09T12:50:57;6.23;;;5.63;;
1531;SDS011;759;53.170;8.210;2022-09-09T12:53:24;8.45;;;6.80;;
1531;SDS011;759;53.170;8.210;2022-09-09T12:58:32;9.70;;;7.00;;
1531;SDS011;759;53.170;8.210;2022-09-09T13:01:00;7.07;;;6.37;;
1531;SDS011;759;53.170;8.210;2022-09-09T13:03:29;8.30;;;7.20;;
1531;SDS011;759;53.170;8.210;2022-09-09T13:06:10;8.07;;;6.70;;
1531;SDS011;759;53.170;8.210;2022-09-09T13:08:37;7.37;;;6.60;;
1531;SDS011;759;53.170;8.210;2022-09-09T13:11:04;7.47;;;6.60;;
1531;SDS011;759;53.170;8.210;2022-09-09T13:13:37;6.87;;;6.17;;
1531;SDS011;759;53.170;8.210;2022-09-09T13:16:05;6.10;;;5.53;;
1531;SDS011;759;53.170;8.210;2022-09-09T13:18:36;6.87;;;6.20;;
1531;SDS011;759;53.170;8.210;2022-09-09T13:21:05;7.20;;;6.63;;
1531;SDS011;759;53.170;8.210;2022-09-09T13:23:31;13.87;;;6.93;;
1531;SDS011;759;53.170;8.210;2022-09-09T13:26:04;7.30;;;6.50;;
1531;SDS011;759;53.170;8.210;2022-09-09T13:28:32;7.67;;;6.97;;
1531;SDS011;759;53.170;8.210;2022-09-09T13:31:18;8.43;;;7.20;;
1531;SDS011;759;53.170;8.210;2022-09-09T13:33:45;8.03;;;5.90;;
1531;SDS011;759;53.170;8.210;2022-09-09T13:36:11;7.13;;;6.17;;
1531;SDS011;759;53.170;8.210;2022-09-09T13:41:33;6.53;;;6.03;;
1531;SDS011;759;53.170;8.210;2022-09-09T13:44:01;6.97;;;6.30;;
1531;SDS011;759;53.170;8.210;2022-09-09T13:48:57;6.13;;;5.57;;
1531;SDS011;759;53.170;8.210;2022-09-09T13:51:34;9.35;;;7.00;;
1531;SDS011;759;53.170;8.210;2022-09-09T13:54:06;7.83;;;7.03;;
1531;SDS011;759;53.170;8.210;2022-09-09T13:56:34;6.70;;;6.00;;
1531;SDS011;759;53.170;8.210;2022-09-09T13:59:00;5.47;;;4.97;;
1531;SDS011;759;53.170;8.210;2022-09-09T14:01:26;6.43;;;4.70;;
1531;SDS011;759;53.170;8.210;2022-09-09T14:03:52;4.53;;;4.13;;
1531;SDS011;759;53.170;8.210;2022-09-09T14:06:18;6.43;;;3.73;;
1531;SDS011;759;53.170;8.210;2022-09-09T14:08:44;7.37;;;3.57;;
1531;SDS011;759;53.170;8.210;2022-09-09T14:11:11;3.67;;;3.30;;
1531;SDS011;759;53.170;8.210;2022-09-09T14:13:37;3.30;;;3.00;;
1531;SDS011;759;53.170;8.210;2022-09-09T14:16:03;3.40;;;3.00;;
1531;SDS011;759;53.170;8.210;2022-09-09T15:16:45;3.20;;;2.90;;
1531;SDS011;759;53.170;8.210;2022-09-09T15:19:11;3.20;;;3.00;;
1531;SDS011;759;53.170;8.210;2022-09-09T15:21:36;4.00;;;3.00;;
1531;SDS011;759;53.170;8.210;2022-09-09T15:24:03;4.10;;;3.80;;
1531;SDS011;759;53.170;8.210;2022-09-09T15:26:29;3.75;;;3.10;;
1531;SDS011;759;53.170;8.210;2022-09-09T15:28:55;4.10;;;3.45;;
1531;SDS011;759;53.170;8.210;2022-09-09T15:31:25;2.73;;;2.50;;
1531;SDS011;759;53.170;8.210;2022-09-09T15:33:56;3.50;;;3.17;;
1531;SDS011;759;53.170;8.210;2022-09-09T15:36:26;3.67;;;2.60;;
1531;SDS011;759;53.170;8.210;2022-09-09T15:39:01;3.90;;;2.67;;
1531;SDS011;759;53.170;8.210;2022-09-09T15:41:28;3.07;;;2.77;;
1531;SDS011;759;53.170;8.210;2022-09-09T15:43:56;3.57;;;2.60;;
1531;SDS011;759;53.170;8.210;2022-09-09T15:46:24;3.77;;;3.47;;
1531;SDS011;759;53.170;8.210;2022-09-09T15:48:51;4.70;;;3.30;;
1531;SDS011;759;53.170;8.210;2022-09-09T15:51:19;4.57;;;3.50;;
1531;SDS011;759;53.170;8.210;2022-09-09T15:53:44;6.43;;;3.03;;
1531;SDS011;759;53.170;8.210;2022-09-09T15:56:10;3.67;;;3.37;;
1531;SDS011;759;53.170;8.210;2022-09-09T15:58:35;5.43;;;3.30;;
1531;SDS011;759;53.170;8.210;2022-09-09T16:01:08;4.37;;;3.60;;
1531;SDS011;759;53.170;8.210;2022-09-09T16:03:34;4.90;;;3.13;;
1531;SDS011;759;53.170;8.210;2022-09-09T16:06:00;2.87;;;2.67;;
1531;SDS011;759;53.170;8.210;2022-09-09T16:08:31;8.80;;;3.47;;
1531;SDS011;759;53.170;8.210;2022-09-09T16:11:04;7.00;;;3.50;;
1531;SDS011;759;53.170;8.210;2022-09-09T16:13:34;3.73;;;3.43;;
1531;SDS011;759;53.170;8.210;2022-09-09T16:16:01;3.13;;;2.93;;
1531;SDS011;759;53.170;8.210;2022-09-09T16:18:32;4.37;;;3.50;;
1531;SDS011;759;53.170;8.210;2022-09-09T16:21:00;4.47;;;3.27;;
1531;SDS011;759;53.170;8.210;2022-09-09T16:23:26;4.17;;;3.37;;
1531;SDS011;759;53.170;8.210;2022-09-09T16:25:56;7.13;;;3.47;;
1531;SDS011;759;53.170;8.210;2022-09-09T16:28:21;4.13;;;3.73;;
1531;SDS011;759;53.170;8.210;2022-09-09T16:30:47;8.00;;;3.57;;
1531;SDS011;759;53.170;8.210;2022-09-09T16:33:13;6.30;;;3.53;;
1531;SDS011;759;53.170;8.210;2022-09-09T16:35:42;3.30;;;3.10;;
1531;SDS011;759;53.170;8.210;2022-09-09T16:38:09;4.13;;;3.67;;
1531;SDS011;759;53.170;8.210;2022-09-09T16:40:35;5.45;;;4.50;;
1531;SDS011;759;53.170;8.210;2022-09-09T16:43:02;4.20;;;3.80;;
1531;SDS011;759;53.170;8.210;2022-09-09T16:45:28;4.33;;;3.93;;
1531;SDS011;759;53.170;8.210;2022-09-09T16:47:54;3.43;;;3.23;;
1531;SDS011;759;53.170;8.210;2022-09-09T16:50:19;4.30;;;3.90;;
1531;SDS011;759;53.170;8.210;2022-09-09T16:52:45;5.10;;;3.47;;
1531;SDS011;759;53.170;8.210;2022-09-09T16:55:11;5.50;;;3.80;;
1531;SDS011;759;53.170;8.210;2022-09-09T16:57:36;6.17;;;4.13;;
1531;SDS011;759;53.170;8.210;2022-09-09T17:00:02;3.67;;;3.23;;
1531;SDS011;759;53.170;8.210;2022-09-09T17:02:30;6.07;;;4.40;;
1531;SDS011;759;53.170;8.210;2022-09-09T17:04:56;5.80;;;4.10;;
1531;SDS011;759;53.170;8.210;2022-09-09T17:07:21;4.20;;;3.90;;
1531;SDS011;759;53.170;8.210;2022-09-09T17:09:48;5.00;;;4.50;;
1531;SDS011;759;53.170;8.210;2022-09-09T17:12:14;6.60;;;5.73;;
1531;SDS011;759;53.170;8.210;2022-09-09T17:14:41;5.47;;;5.03;;
1531;SDS011;759;53.170;8.210;2022-09-09T17:17:07;9.33;;;6.00;;
1531;SDS011;759;53.170;8.210;2022-09-09T17:19:32;6.23;;;5.63;;
1531;SDS011;759;53.170;8.210;2022-09-09T17:21:58;7.75;;;6.90;;
1531;SDS011;759;53.170;8.210;2022-09-09T17:24:24;5.90;;;4.00;;
1531;SDS011;759;53.170;8.210;2022-09-09T17:26:51;6.20;;;4.23;;
1531;SDS011;759;53.170;8.210;2022-09-09T17:29:17;4.73;;;4.33;;
1531;SDS011;759;53.170;8.210;2022-09-09T17:31:42;4.90;;;4.43;;
1531;SDS011;759;53.170;8.210;2022-09-09T17:34:08;4.75;;;4.40;;
1531;SDS011;759;53.170;8.210;2022-09-09T17:36:34;5.17;;;4.67;;
1531;SDS011;759;53.170;8.210;2022-09-09T17:39:01;5.67;;;3.90;;
1531;SDS011;759;53.170;8.210;2022-09-09T17:41:38;4.57;;;3.77;;
1531;SDS011;759;53.170;8.210;2022-09-09T17:44:04;3.60;;;3.30;;
1531;SDS011;759;53.170;8.210;2022-09-09T17:46:38;3.50;;;2.83;;
1531;SDS011;759;53.170;8.210;2022-09-09T17:49:07;3.57;;;3.20;;
1531;SDS011;759;53.170;8.210;2022-09-09T17:51:36;4.93;;;4.43;;
1531;SDS011;759;53.170;8.210;2022-09-09T17:54:06;3.90;;;2.70;;
1531;SDS011;759;53.170;8.210;2022-09-09T17:56:34;4.60;;;2.97;;
1531;SDS011;759;53.170;8.210;2022-09-09T17:59:02;2.90;;;2.70;;
1531;SDS011;759;53.170;8.210;2022-09-09T18:01:31;3.25;;;2.85;;
1531;SDS011;759;53.170;8.210;2022-09-09T18:03:59;3.90;;;2.63;;
1531;SDS011;759;53.170;8.210;2022-09-09T18:06:27;3.17;;;2.87;;
1531;SDS011;759;53.170;8.210;2022-09-09T18:08:56;2.20;;;2.10;;
1531;SDS011;759;53.170;8.210;2022-09-09T18:11:29;2.70;;;2.50;;
1531;SDS011;759;53.170;8.210;2022-09-09T18:13:58;2.50;;;2.30;;
1531;SDS011;759;53.170;8.210;2022-09-09T18:16:25;3.30;;;2.77;;
1531;SDS011;759;53.170;8.210;2022-09-09T18:18:53;4.00;;;3.33;;
1531;SDS011;759;53.170;8.210;2022-09-09T18:21:20;2.90;;;2.60;;
1531;SDS011;759;53.170;8.210;2022-09-09T18:23:47;3.95;;;3.25;;
1531;SDS011;759;53.170;8.210;2022-09-09T18:26:17;3.20;;;2.90;;
1531;SDS011;759;53.170;8.210;2022-09-09T18:28:48;2.87;;;2.67;;
1531;SDS011;759;53.170;8.210;2022-09-09T18:31:16;3.30;;;2.33;;
1531;SDS011;759;53.170;8.210;2022-09-09T18:33:43;2.70;;;2.50;;
1531;SDS011;759;53.170;8.210;2022-09-09T18:36:14;3.37;;;3.03;;
1531;SDS011;759;53.170;8.210;2022-09-09T18:39:00;3.50;;;3.20;;
1531;SDS011;759;53.170;8.210;2022-09-09T18:41:28;3.10;;;2.90;;
1531;SDS011;759;53.170;8.210;2022-09-09T18:44:03;4.00;;;3.60;;
1531;SDS011;759;53.170;8.210;2022-09-09T18:46:31;4.43;;;4.03;;
1531;SDS011;759;53.170;8.210;2022-09-09T18:48:58;5.30;;;3.20;;
1531;SDS011;759;53.170;8.210;2022-09-09T18:51:25;3.70;;;3.30;;
1531;SDS011;759;53.170;8.210;2022-09-09T18:53:56;8.93;;;3.53;;
1531;SDS011;759;53.170;8.210;2022-09-09T18:56:23;2.97;;;2.77;;
1531;SDS011;759;53.170;8.210;2022-09-09T18:58:56;5.00;;;3.30;;